TimeEST,TemperatureF,Dew PointF,Humidity,Sea Level PressureIn,VisibilityMPH,Wind Direction,Wind SpeedMPH,Gust SpeedMPH,PrecipitationIn,Events,Conditions,WindDirDegrees,DateUTC
12:53 AM,59.0,55.9,90,30.13,10.0,Calm,Calm,-,N/A,,Clear,0,2012-11-26 05:53:00
1:53 AM,60.1,55.9,86,30.13,10.0,Calm,Calm,-,N/A,,Mostly Cloudy,0,2012-11-26 06:53:00
2:12 AM,60.8,57.2,88,30.12,10.0,Calm,Calm,-,N/A,,Overcast,0,2012-11-26 07:12:00
2:53 AM,62.1,57.9,86,30.12,10.0,NW,3.5,-,N/A,,Mostly Cloudy,310,2012-11-26 07:53:00
3:53 AM,63.0,59.0,87,30.12,10.0,NNW,4.6,-,N/A,,Overcast,340,2012-11-26 08:53:00
4:53 AM,64.0,57.9,80,30.13,10.0,NNW,4.6,-,N/A,,Mostly Cloudy,340,2012-11-26 09:53:00
5:53 AM,63.0,57.9,84,30.14,10.0,WNW,3.5,-,N/A,,Partly Cloudy,290,2012-11-26 10:53:00
6:53 AM,61.0,57.9,90,30.16,10.0,Calm,Calm,-,N/A,,Clear,0,2012-11-26 11:53:00
7:53 AM,61.0,59.0,93,30.17,10.0,NW,3.5,-,N/A,,Scattered Clouds,320,2012-11-26 12:53:00
8:53 AM,68.0,61.0,78,30.19,10.0,Calm,Calm,-,N/A,,Scattered Clouds,0,2012-11-26 13:53:00
9:53 AM,73.9,61.0,64,30.20,10.0,Calm,Calm,-,N/A,,Clear,0,2012-11-26 14:53:00
10:53 AM,75.9,61.0,60,30.21,10.0,East,5.8,-,N/A,,Scattered Clouds,90,2012-11-26 15:53:00
11:53 AM,75.9,61.0,60,30.20,10.0,ESE,6.9,-,N/A,,Partly Cloudy,110,2012-11-26 16:53:00
12:53 PM,75.9,60.1,58,30.17,10.0,East,6.9,-,N/A,,Partly Cloudy,100,2012-11-26 17:53:00
1:53 PM,75.9,59.0,56,30.15,10.0,East,5.8,-,N/A,,Clear,100,2012-11-26 18:53:00
2:53 PM,75.9,59.0,56,30.14,10.0,East,10.4,-,N/A,,Clear,100,2012-11-26 19:53:00
3:53 PM,75.0,60.1,60,30.14,10.0,ESE,10.4,-,N/A,,Clear,120,2012-11-26 20:53:00
4:53 PM,73.9,59.0,59,30.14,10.0,ESE,8.1,-,N/A,,Clear,110,2012-11-26 21:53:00
5:53 PM,72.0,60.1,66,30.15,10.0,ESE,9.2,-,N/A,,Clear,120,2012-11-26 22:53:00
6:53 PM,71.1,61.0,70,30.17,10.0,ESE,6.9,-,N/A,,Partly Cloudy,110,2012-11-26 23:53:00
7:53 PM,72.0,60.1,66,30.19,10.0,ESE,9.2,-,N/A,,Scattered Clouds,120,2012-11-27 00:53:00
8:53 PM,72.0,60.1,66,30.19,10.0,SE,9.2,-,N/A,,Partly Cloudy,140,2012-11-27 01:53:00
9:53 PM,72.0,60.1,66,30.20,10.0,SE,9.2,-,N/A,,Partly Cloudy,130,2012-11-27 02:53:00
10:53 PM,72.0,60.1,66,30.20,10.0,SE,11.5,-,N/A,,Partly Cloudy,140,2012-11-27 03:53:00
11:53 PM,72.0,61.0,68,30.19,10.0,SE,9.2,-,N/A,,Mostly Cloudy,130,2012-11-27 04:53:00